createdAt,value
2018-02-12T00:00:21.402Z,1.20
2018-02-12T00:02:48.994Z,1.20
2018-02-12T00:05:17.327Z,1.50
2018-02-12T00:07:44.991Z,1.43
2018-02-12T00:10:12.662Z,1.30
2018-02-12T00:12:40.327Z,1.00
2018-02-12T00:15:07.912Z,1.00
2018-02-12T00:17:35.489Z,1.20
2018-02-12T00:20:03.812Z,1.17
2018-02-12T00:22:31.373Z,1.30
2018-02-12T00:24:59.038Z,1.23
2018-02-12T00:27:26.707Z,1.20
2018-02-12T00:29:54.361Z,1.33
2018-02-12T00:32:22.042Z,1.20
2018-02-12T00:34:49.618Z,1.30
2018-02-12T00:37:17.203Z,1.37
2018-02-12T00:39:45.638Z,1.63
2018-02-12T00:42:13.212Z,1.30
2018-02-12T00:44:40.873Z,1.10
2018-02-12T00:47:08.448Z,1.07
2018-02-12T00:49:36.893Z,1.40
2018-02-12T00:52:04.493Z,1.30
2018-02-12T00:54:32.079Z,1.20
2018-02-12T00:57:00.425Z,1.33
2018-02-12T00:59:27.993Z,1.10
2018-02-12T01:01:55.578Z,1.20
2018-02-12T01:04:24.000Z,1.20
2018-02-12T01:06:51.585Z,1.30
2018-02-12T01:09:19.227Z,1.30
2018-02-12T01:11:46.793Z,1.20
2018-02-12T01:14:14.356Z,1.20
2018-02-12T01:16:42.026Z,1.27
2018-02-12T01:19:09.596Z,1.30
2018-02-12T01:21:37.172Z,1.10
2018-02-12T01:24:05.623Z,1.20
2018-02-12T01:26:33.280Z,1.23
2018-02-12T01:29:00.860Z,1.10
2018-02-12T01:31:28.447Z,1.20
2018-02-12T01:33:56.892Z,1.20
2018-02-12T01:36:24.469Z,1.07
2018-02-12T01:38:52.061Z,1.17
2018-02-12T01:41:20.387Z,1.27
2018-02-12T01:43:48.753Z,1.10
2018-02-12T01:46:33.506Z,1.10
2018-02-12T01:49:01.181Z,1.10
2018-02-12T01:51:28.830Z,1.10
2018-02-12T01:53:56.925Z,1.20
2018-02-12T01:56:24.491Z,1.10
2018-02-12T01:58:52.151Z,1.00
2018-02-12T02:01:19.739Z,1.20
2018-02-12T02:03:47.308Z,1.10
2018-02-12T02:06:15.738Z,0.90
2018-02-12T02:08:43.312Z,1.20
2018-02-12T02:11:18.021Z,1.20
2018-02-12T02:13:45.905Z,1.30
2018-02-12T02:16:13.483Z,1.10
2018-02-12T02:18:41.068Z,1.03
2018-02-12T02:21:09.749Z,1.10
2018-02-12T02:23:37.314Z,1.10
2018-02-12T02:26:09.455Z,1.20
2018-02-12T02:28:37.062Z,1.10
2018-02-12T02:31:05.488Z,1.47
2018-02-12T02:33:33.151Z,1.30
2018-02-12T02:36:00.846Z,1.10
2018-02-12T02:38:49.975Z,1.17
2018-02-12T02:41:17.634Z,1.10
2018-02-12T02:43:45.727Z,1.00
2018-02-12T02:46:13.311Z,1.20
2018-02-12T02:48:42.195Z,1.03
2018-02-12T02:51:09.774Z,1.20
2018-02-12T02:53:38.285Z,1.17
2018-02-12T02:56:05.958Z,1.10
2018-02-12T02:58:33.529Z,1.40
2018-02-12T03:01:01.103Z,1.10
2018-02-12T03:03:36.542Z,1.20
2018-02-12T03:06:04.127Z,1.23
2018-02-12T03:08:31.694Z,1.10
2018-02-12T03:10:59.279Z,1.23
2018-02-12T03:13:27.684Z,1.00
2018-02-12T03:16:12.823Z,0.97
2018-02-12T03:18:41.160Z,1.40
2018-02-12T03:21:08.763Z,1.20
2018-02-12T03:23:38.036Z,1.10
2018-02-12T03:26:05.843Z,1.20
2018-02-12T03:28:54.526Z,1.30
2018-02-12T03:31:22.196Z,1.20
2018-02-12T03:33:49.896Z,1.20
2018-02-12T03:36:17.522Z,1.30
2018-02-12T03:38:45.125Z,1.27
2018-02-12T03:41:13.566Z,1.33
2018-02-12T03:43:41.144Z,1.27
2018-02-12T03:46:08.726Z,1.10
2018-02-12T03:48:37.160Z,1.10
2018-02-12T03:51:04.727Z,1.30
2018-02-12T03:53:39.614Z,1.20
2018-02-12T03:56:07.936Z,1.33
2018-02-12T03:58:35.592Z,1.20
2018-02-12T04:01:03.176Z,1.20
2018-02-12T04:03:30.871Z,1.30
2018-02-12T04:06:14.970Z,1.27
2018-02-12T04:08:42.649Z,1.20
2018-02-12T04:11:10.289Z,1.30
2018-02-12T04:13:38.071Z,1.10
2018-02-12T04:16:05.637Z,1.10
2018-02-12T04:18:33.295Z,1.20
2018-02-12T04:21:00.957Z,1.20
2018-02-12T04:23:28.613Z,1.10
2018-02-12T04:25:56.179Z,1.20
2018-02-12T04:28:23.771Z,1.20
2018-02-12T04:30:51.388Z,1.40
2018-02-12T04:33:18.946Z,1.13
2018-02-12T04:35:46.625Z,1.20
2018-02-12T04:38:14.198Z,1.20
2018-02-12T04:40:41.762Z,1.10
2018-02-12T04:43:09.396Z,1.40
2018-02-12T04:45:51.172Z,1.10
2018-02-12T04:48:18.867Z,0.90
2018-02-12T04:50:46.423Z,1.20
2018-02-12T04:53:14.392Z,1.37
2018-02-12T04:55:41.960Z,1.50
2018-02-12T04:58:12.585Z,1.20
2018-02-12T05:00:40.285Z,1.20
2018-02-12T05:03:07.874Z,1.03
2018-02-12T05:05:35.559Z,1.10
2018-02-12T05:08:03.124Z,1.43
2018-02-12T05:10:30.797Z,1.33
2018-02-12T05:12:58.362Z,1.03
2018-02-12T05:15:25.926Z,1.20
2018-02-12T05:17:53.626Z,1.10
2018-02-12T05:20:21.240Z,1.53
2018-02-12T05:22:48.906Z,1.20
2018-02-12T05:25:16.568Z,1.30
2018-02-12T05:27:44.129Z,1.40
2018-02-12T05:30:11.681Z,1.27
2018-02-12T05:32:39.265Z,1.30
2018-02-12T05:35:06.930Z,1.43
2018-02-12T05:37:34.514Z,1.10
2018-02-12T05:40:02.100Z,1.10
2018-02-12T05:42:29.658Z,1.20
2018-02-12T05:44:58.079Z,1.20
2018-02-12T05:47:25.672Z,1.20
2018-02-12T05:49:53.296Z,1.30
2018-02-12T05:52:20.860Z,1.20
2018-02-12T05:54:48.449Z,1.10
2018-02-12T05:57:16.049Z,1.13
2018-02-12T05:59:43.605Z,1.23
2018-02-12T06:02:11.212Z,1.37
2018-02-12T06:04:38.881Z,1.30
2018-02-12T06:07:06.462Z,1.40
2018-02-12T06:09:34.057Z,1.30
2018-02-12T06:12:01.638Z,1.50
2018-02-12T06:14:29.315Z,1.20
2018-02-12T06:16:56.977Z,1.10
2018-02-12T06:19:24.628Z,1.30
2018-02-12T06:21:52.302Z,1.20
2018-02-12T06:24:19.875Z,1.10
2018-02-12T06:26:47.437Z,1.00
2018-02-12T06:29:14.999Z,1.00
2018-02-12T06:31:42.648Z,1.10
2018-02-12T06:34:10.216Z,1.07
2018-02-12T06:36:37.784Z,1.00
2018-02-12T06:39:05.370Z,1.10
2018-02-12T06:41:33.792Z,1.43
2018-02-12T06:44:01.353Z,1.20
2018-02-12T06:46:28.935Z,1.20
2018-02-12T06:48:56.505Z,1.10
2018-02-12T06:51:24.065Z,1.20
2018-02-12T06:53:51.657Z,1.40
2018-02-12T06:56:20.094Z,1.20
2018-02-12T06:58:47.781Z,1.20
2018-02-12T07:01:15.422Z,1.33
2018-02-12T07:03:43.005Z,1.30
2018-02-12T07:06:11.328Z,1.20
2018-02-12T07:09:16.188Z,1.30
2018-02-12T07:11:44.003Z,1.50
2018-02-12T07:14:12.974Z,1.40
2018-02-12T07:16:40.596Z,1.43
2018-02-12T07:43:04.840Z,1.63
2018-02-12T07:52:30.692Z,2.03
2018-02-12T07:55:14.148Z,2.07
2018-02-12T07:57:41.734Z,2.00
2018-02-12T08:00:09.314Z,1.97
2018-02-12T08:02:36.890Z,2.00
2018-02-12T08:05:04.487Z,1.50
2018-02-12T08:18:26.658Z,1.50
2018-02-12T08:20:54.271Z,1.50
2018-02-12T08:23:21.879Z,2.00
2018-02-12T08:25:49.458Z,1.60
2018-02-12T08:28:17.786Z,1.83
2018-02-12T08:30:45.403Z,1.90
2018-02-12T08:33:12.997Z,1.60
2018-02-12T08:35:40.580Z,1.50
2018-02-12T08:38:08.409Z,1.73
2018-02-12T08:40:35.981Z,1.60
2018-02-12T08:43:03.584Z,1.70
2018-02-12T08:45:31.185Z,1.70
2018-02-12T09:05:57.324Z,3.70
2018-02-12T09:08:25.679Z,2.40
2018-02-12T09:10:53.275Z,2.93
2018-02-12T09:13:20.889Z,2.17
2018-02-12T09:15:48.485Z,2.60
2018-02-12T09:18:16.837Z,2.30
2018-02-12T09:20:44.436Z,2.40
2018-02-12T09:23:12.064Z,2.73
2018-02-12T09:25:39.673Z,2.03
2018-02-12T09:46:06.950Z,3.70
2018-02-12T09:50:02.848Z,2.73
2018-02-12T09:52:30.520Z,2.33
2018-02-12T09:55:53.956Z,2.37
2018-02-12T09:58:21.557Z,2.50
2018-02-12T10:04:12.704Z,2.63
2018-02-12T10:10:09.465Z,2.70
2018-02-12T10:12:37.797Z,2.70
2018-02-12T10:18:27.923Z,2.70
2018-02-12T10:20:55.512Z,2.30
2018-02-12T10:23:34.494Z,2.33
2018-02-12T10:26:02.079Z,2.60
2018-02-12T10:28:29.769Z,2.35
2018-02-12T10:31:20.788Z,2.37
2018-02-12T10:33:49.127Z,2.70
2018-02-12T10:36:16.706Z,2.50
2018-02-12T10:38:44.307Z,2.50
2018-02-12T10:41:11.890Z,2.13
2018-02-12T10:43:39.489Z,2.90
2018-02-12T10:46:07.096Z,2.20
2018-02-12T10:48:34.676Z,2.37
2018-02-12T10:51:02.274Z,2.55
2018-02-12T10:53:51.038Z,2.20
2018-02-12T10:56:19.373Z,2.53
2018-02-12T10:58:46.970Z,2.20
2018-02-12T11:01:35.499Z,2.27
2018-02-12T11:04:03.103Z,2.20
2018-02-12T11:06:31.449Z,2.20
2018-02-12T11:08:59.044Z,2.12
2018-02-12T11:11:27.391Z,2.10
2018-02-12T11:14:11.943Z,2.20
2018-02-12T11:16:39.506Z,2.20
2018-02-12T11:19:07.080Z,2.17
2018-02-12T11:21:34.710Z,2.20
2018-02-12T11:24:02.291Z,1.87
2018-02-12T11:26:29.890Z,2.30
2018-02-12T11:28:58.249Z,2.17
2018-02-12T11:31:25.819Z,1.98
2018-02-12T11:33:54.152Z,2.10
2018-02-12T11:36:21.763Z,1.90
2018-02-12T11:38:57.783Z,1.90
2018-02-12T11:41:25.384Z,2.00
2018-02-12T11:43:53.740Z,2.30
2018-02-12T11:46:21.307Z,2.20
2018-02-12T11:48:48.963Z,1.90
2018-02-12T11:51:35.878Z,2.10
2018-02-12T11:54:04.260Z,1.80
2018-02-12T11:56:31.866Z,2.25
2018-02-12T11:58:59.452Z,1.53
2018-02-12T12:01:27.334Z,1.90
2018-02-12T12:03:54.904Z,1.70
2018-02-12T12:06:22.530Z,2.00
2018-02-12T12:08:50.127Z,1.80
2018-02-12T12:11:17.694Z,1.77
2018-02-12T12:13:45.259Z,2.37
2018-02-12T12:16:20.105Z,1.87
2018-02-12T12:18:48.435Z,1.87
2018-02-12T12:21:16.051Z,1.83
2018-02-12T12:23:44.416Z,1.60
2018-02-12T12:26:12.056Z,1.90
2018-02-12T12:28:39.647Z,1.97
2018-02-12T12:31:08.014Z,2.00
2018-02-12T12:33:35.591Z,1.90
2018-02-12T12:36:03.938Z,1.87
2018-02-12T12:38:31.534Z,1.97
2018-02-12T12:40:59.870Z,1.90
2018-02-12T12:43:27.460Z,1.97
2018-02-12T12:45:55.079Z,1.87
2018-02-12T12:48:22.731Z,1.80
2018-02-12T12:50:50.311Z,1.90
2018-02-12T12:53:17.943Z,1.73
2018-02-12T12:55:56.391Z,1.90
2018-02-12T12:58:23.988Z,2.30
2018-02-12T13:00:52.996Z,1.60
2018-02-12T13:03:21.326Z,1.63
2018-02-12T13:05:48.928Z,1.60
2018-02-12T13:08:17.282Z,1.90
2018-02-12T13:10:44.872Z,1.60
2018-02-12T13:13:13.268Z,1.70
2018-02-12T13:15:40.864Z,1.60
2018-02-12T13:18:08.460Z,1.80
2018-02-12T13:20:36.043Z,1.63
2018-02-12T13:23:04.412Z,2.25
2018-02-12T13:25:40.427Z,1.70
2018-02-12T13:28:08.012Z,1.70
2018-02-12T13:30:35.617Z,1.53
2018-02-12T13:33:03.229Z,1.70
2018-02-12T13:35:30.806Z,1.80
2018-02-12T13:37:58.390Z,1.87
2018-02-12T13:40:26.848Z,1.70
2018-02-12T13:42:54.420Z,1.87
2018-02-12T13:45:29.954Z,1.83
2018-02-12T13:47:57.540Z,1.70
2018-02-12T13:50:25.882Z,1.90
2018-02-12T13:52:54.514Z,1.60
2018-02-12T13:55:22.873Z,1.50
2018-02-12T13:57:53.606Z,2.13
2018-02-12T14:00:21.986Z,1.80
2018-02-12T14:02:50.343Z,1.60
2018-02-12T14:05:17.945Z,1.80
2018-02-12T14:07:45.532Z,2.00
2018-02-12T14:10:13.881Z,1.80
2018-02-12T14:12:42.251Z,1.60
2018-02-12T14:15:09.862Z,1.73
2018-02-12T14:17:37.471Z,1.80
2018-02-12T14:20:45.056Z,1.60
2018-02-12T14:23:12.632Z,1.80
2018-02-12T14:25:41.000Z,1.57
2018-02-12T14:28:08.576Z,1.30
2018-02-12T14:30:36.922Z,1.83
2018-02-12T14:33:04.511Z,1.80
2018-02-12T14:35:32.855Z,1.67
2018-02-12T14:38:00.431Z,1.70
2018-02-12T14:40:28.034Z,1.80
2018-02-12T14:43:10.844Z,1.60
2018-02-12T14:45:39.207Z,1.77
2018-02-12T14:48:08.304Z,1.90
2018-02-12T14:50:36.634Z,1.87
2018-02-12T14:53:05.281Z,1.97
2018-02-12T14:55:33.614Z,1.83
2018-02-12T14:58:01.177Z,2.07
2018-02-12T15:00:49.840Z,1.60
2018-02-12T15:03:17.422Z,1.80
2018-02-12T15:05:45.769Z,2.07
2018-02-12T15:08:13.383Z,1.60
2018-02-12T15:10:40.964Z,1.90
2018-02-12T15:13:08.549Z,2.03
2018-02-12T15:15:36.144Z,2.00
2018-02-12T15:18:03.739Z,1.80
2018-02-12T15:20:31.300Z,1.70
2018-02-12T15:22:58.897Z,1.90
2018-02-12T15:25:34.280Z,1.57
2018-02-12T15:28:02.639Z,1.70
2018-02-12T15:30:30.214Z,1.57
2018-02-12T15:32:58.577Z,1.70
2018-02-12T15:35:26.191Z,1.60
2018-02-12T15:38:17.883Z,1.73
2018-02-12T15:40:46.264Z,1.60
2018-02-12T15:43:14.617Z,1.87
2018-02-12T15:45:42.191Z,1.50
2018-02-12T15:48:09.799Z,1.70
2018-02-12T15:50:50.851Z,1.73
2018-02-12T15:53:19.199Z,1.60
2018-02-12T15:55:46.773Z,1.47
2018-02-12T15:58:14.356Z,1.80
2018-02-12T16:00:44.542Z,1.80
2018-02-12T16:03:12.137Z,1.50
2018-02-12T16:05:40.481Z,1.50
2018-02-12T16:08:08.097Z,1.43
2018-02-12T16:10:35.687Z,1.80
2018-02-12T16:13:03.271Z,1.67
2018-02-12T16:15:38.210Z,1.70
2018-02-12T16:18:05.774Z,1.87
2018-02-12T16:20:33.353Z,1.60
2018-02-12T16:23:01.729Z,1.57
2018-02-12T16:25:30.072Z,1.50
2018-02-12T16:27:57.652Z,1.40
2018-02-12T16:30:25.322Z,1.60
2018-02-12T16:32:53.660Z,1.70
2018-02-12T16:35:21.232Z,1.70
2018-02-12T16:37:48.836Z,1.40
2018-02-12T16:40:17.191Z,1.60
2018-02-12T16:42:44.784Z,1.40
2018-02-12T16:45:13.160Z,1.53
2018-02-12T16:47:40.745Z,1.50
2018-02-12T16:50:08.320Z,1.77
2018-02-12T16:53:00.060Z,1.77
2018-02-12T16:55:27.649Z,1.60
2018-02-12T16:57:55.251Z,1.97
2018-02-12T17:00:22.887Z,1.90
2018-02-12T17:02:51.250Z,1.90
2018-02-12T17:05:18.831Z,2.27
2018-02-12T17:07:47.182Z,2.37
2018-02-12T17:10:14.817Z,3.03
2018-02-12T17:12:42.390Z,3.97
2018-02-12T17:15:10.046Z,4.37
2018-02-12T17:17:37.631Z,4.20
2018-02-12T17:20:05.218Z,4.53
2018-02-12T17:22:33.664Z,3.60
2018-02-12T17:25:01.396Z,3.90
2018-02-12T17:27:29.087Z,3.53
2018-02-12T17:29:56.716Z,3.17
2018-02-12T17:32:37.316Z,3.30
2018-02-12T17:35:04.933Z,3.33
2018-02-12T17:37:33.078Z,3.33
2018-02-12T17:40:00.669Z,3.30
2018-02-12T17:42:28.271Z,2.97
2018-02-12T17:44:55.860Z,3.00
2018-02-12T17:47:23.464Z,3.40
2018-02-12T17:49:51.050Z,2.73
2018-02-12T17:52:18.692Z,2.63
2018-02-12T17:54:46.262Z,3.23
2018-02-12T17:57:21.494Z,3.00
2018-02-12T17:59:49.075Z,3.17
2018-02-12T18:02:16.678Z,2.50
2018-02-12T18:04:45.148Z,2.80
2018-02-12T18:07:12.764Z,2.80
2018-02-12T18:10:01.548Z,3.00
2018-02-12T18:12:29.215Z,2.40
2018-02-12T18:14:56.799Z,3.10
2018-02-12T18:17:24.406Z,2.50
2018-02-12T18:19:52.136Z,2.70
2018-02-12T18:22:42.247Z,2.77
2018-02-12T18:25:09.873Z,2.67
2018-02-12T18:27:37.473Z,2.47
2018-02-12T18:30:05.076Z,2.50
2018-02-12T18:32:33.842Z,2.50
2018-02-12T18:35:01.429Z,2.40
2018-02-12T18:37:29.030Z,2.73
2018-02-12T18:40:14.617Z,2.60
2018-02-12T18:42:42.997Z,2.70
2018-02-12T18:45:11.386Z,2.50
2018-02-12T18:47:39.183Z,2.80
2018-02-12T18:50:06.883Z,2.20
2018-02-12T18:52:55.419Z,2.40
2018-02-12T18:55:23.076Z,2.47
2018-02-12T18:57:50.705Z,2.40
2018-02-12T19:00:18.283Z,2.70
2018-02-12T19:02:45.885Z,2.50
2018-02-12T19:05:13.490Z,2.30
2018-02-12T19:07:41.078Z,2.50
2018-02-12T19:10:08.750Z,2.10
2018-02-12T19:12:36.338Z,2.70
2018-02-12T19:15:04.689Z,2.17
2018-02-12T19:17:32.307Z,2.50
2018-02-12T19:19:59.891Z,2.47
2018-02-12T19:22:27.483Z,2.10
2018-02-12T19:24:55.091Z,2.27
2018-02-12T19:27:22.797Z,2.30
2018-02-12T19:29:50.379Z,2.30
2018-02-12T19:32:31.135Z,2.63
2018-02-12T19:34:59.500Z,2.27
2018-02-12T19:37:27.082Z,2.47
2018-02-12T19:39:54.692Z,2.27
2018-02-12T19:42:22.288Z,2.40
2018-02-12T19:44:49.878Z,2.10
2018-02-12T19:47:18.228Z,2.40
2018-02-12T19:49:45.820Z,2.37
2018-02-12T19:52:14.148Z,2.30
2018-02-12T19:54:41.733Z,2.37
2018-02-12T19:57:09.363Z,2.50
2018-02-12T19:59:36.939Z,2.30
2018-02-12T20:02:04.519Z,2.10
2018-02-12T20:04:32.179Z,2.00
2018-02-12T20:06:59.843Z,2.37
2018-02-12T20:09:27.512Z,2.50
2018-02-12T20:11:55.099Z,2.83
2018-02-12T20:14:23.542Z,2.83
2018-02-12T20:16:51.142Z,2.73
2018-02-12T20:19:19.608Z,2.57
2018-02-12T20:21:47.192Z,2.60
2018-02-12T20:24:15.563Z,2.93
2018-02-12T20:26:44.001Z,2.73
2018-02-12T20:29:11.669Z,2.57
2018-02-12T20:31:39.256Z,2.20
2018-02-12T20:34:06.910Z,2.67
2018-02-12T20:36:34.555Z,2.63
2018-02-12T20:39:02.163Z,3.07
2018-02-12T20:41:29.815Z,2.53
2018-02-12T20:43:58.190Z,2.30
2018-02-12T20:46:26.568Z,2.53
2018-02-12T20:48:54.221Z,2.70
2018-02-12T20:51:43.682Z,2.40
2018-02-12T20:54:11.271Z,2.43
2018-02-12T20:56:39.662Z,2.60
2018-02-12T20:59:08.690Z,2.50
2018-02-12T21:01:36.365Z,2.50
2018-02-12T21:04:03.952Z,2.80
2018-02-12T21:06:31.571Z,2.47
2018-02-12T21:08:59.285Z,2.50
2018-02-12T21:11:26.919Z,2.80
2018-02-12T21:13:54.533Z,2.50
2018-02-12T21:16:30.227Z,2.60
2018-02-12T21:18:57.848Z,2.73
2018-02-12T21:21:26.278Z,2.40
2018-02-12T21:23:53.959Z,2.67
2018-02-12T21:26:21.621Z,2.40
2018-02-12T21:29:07.894Z,2.50
2018-02-12T21:31:35.566Z,2.37
2018-02-12T21:34:03.204Z,2.30
2018-02-12T21:36:30.900Z,2.50
2018-02-12T21:38:58.508Z,2.00
2018-02-12T21:41:26.935Z,2.50
2018-02-12T21:43:54.515Z,2.17
2018-02-12T21:46:22.134Z,2.60
2018-02-12T21:48:49.694Z,2.60
2018-02-12T21:51:17.291Z,2.67
2018-02-12T21:53:44.899Z,2.40
2018-02-12T21:56:12.477Z,2.40
2018-02-12T21:58:40.064Z,2.67
2018-02-12T22:01:07.721Z,2.50
2018-02-12T22:03:35.297Z,2.73
2018-02-12T22:06:02.970Z,2.47
2018-02-12T22:08:31.345Z,2.60
2018-02-12T22:10:58.925Z,2.37
2018-02-12T22:13:27.392Z,2.50
2018-02-12T22:15:54.989Z,2.40
2018-02-12T22:18:22.603Z,2.73
2018-02-12T22:20:50.327Z,2.50
2018-02-12T22:23:35.154Z,2.60
2018-02-12T22:26:02.792Z,2.83
2018-02-12T22:28:30.402Z,2.60
2018-02-12T22:30:58.045Z,2.67
2018-02-12T22:33:26.389Z,2.80
2018-02-12T22:35:54.018Z,2.27
2018-02-12T22:38:22.372Z,2.23
2018-02-12T22:40:50.719Z,2.60
2018-02-12T22:43:18.386Z,2.20
2018-02-12T22:45:46.019Z,2.50
2018-02-12T22:48:13.695Z,2.63
2018-02-12T22:50:41.268Z,2.30
2018-02-12T22:53:08.925Z,2.57
2018-02-12T22:55:36.511Z,2.50
